createdAt,value
2022-08-05T00:00:18.838Z,41.84
2022-08-05T00:02:50.974Z,42.00
2022-08-05T00:06:02.064Z,42.90
2022-08-05T00:08:30.848Z,43.34
2022-08-05T00:10:56.957Z,43.59
2022-08-05T00:13:38.763Z,43.51
2022-08-05T00:16:10.968Z,43.50
2022-08-05T00:18:44.387Z,43.44
2022-08-05T00:21:14.444Z,44.00
2022-08-05T00:23:46.452Z,43.59
2022-08-05T00:26:22.503Z,43.92
2022-08-05T00:28:50.954Z,43.82
2022-08-05T00:31:52.974Z,43.37
2022-08-05T00:34:55.635Z,43.66
2022-08-05T00:37:12.028Z,43.85
2022-08-05T00:39:44.431Z,44.24
2022-08-05T00:42:33.287Z,44.42
2022-08-05T00:45:01.147Z,44.32
2022-08-05T00:47:53.208Z,44.41
2022-08-05T00:50:17.912Z,44.64
2022-08-05T00:52:46.868Z,44.56
2022-08-05T00:55:14.959Z,44.17
2022-08-05T00:57:58.781Z,44.05
2022-08-05T01:00:28.010Z,43.90
2022-08-05T01:02:59.675Z,43.64
2022-08-05T01:05:28.386Z,43.49
2022-08-05T01:08:30.291Z,43.90
2022-08-05T01:10:52.167Z,43.99
2022-08-05T01:13:27.454Z,44.06
2022-08-05T01:16:26.269Z,43.68
2022-08-05T01:19:01.699Z,44.24
2022-08-05T01:21:53.694Z,44.61
2022-08-05T01:24:42.113Z,44.78
2022-08-05T01:27:27.877Z,44.81
2022-08-05T01:30:04.894Z,44.52
2022-08-05T01:32:44.744Z,44.63
2022-08-05T01:35:50.810Z,44.82
2022-08-05T01:38:07.968Z,45.01
2022-08-05T01:40:43.000Z,44.73
2022-08-05T01:43:22.271Z,45.02
2022-08-05T01:45:56.459Z,45.34
2022-08-05T01:48:26.118Z,45.65
2022-08-05T01:50:56.772Z,45.93
2022-08-05T01:53:55.188Z,46.33
2022-08-05T01:58:13.736Z,46.37
2022-08-05T01:59:07.698Z,46.40
2022-08-05T02:01:38.887Z,46.26
2022-08-05T02:04:10.193Z,46.04
2022-08-05T02:06:39.208Z,45.57
2022-08-05T02:09:08.296Z,46.03
2022-08-05T02:11:51.351Z,46.16
2022-08-05T02:14:25.561Z,45.54
2022-08-05T02:17:00.690Z,46.24
2022-08-05T02:19:34.674Z,46.16
2022-08-05T02:22:08.806Z,46.30
2022-08-05T02:24:40.015Z,45.96
2022-08-05T02:27:11.496Z,46.29
2022-08-05T02:29:59.674Z,45.98
2022-08-05T02:32:31.846Z,46.38
2022-08-05T02:35:13.640Z,46.36
2022-08-05T02:37:47.754Z,46.75
2022-08-05T02:40:23.113Z,46.70
2022-08-05T02:42:54.308Z,46.44
2022-08-05T02:45:24.198Z,46.30
2022-08-05T02:48:07.072Z,46.32
2022-08-05T02:50:43.982Z,46.09
2022-08-05T02:53:18.675Z,45.76
2022-08-05T02:55:54.730Z,45.93
2022-08-05T02:58:30.290Z,45.97
2022-08-05T03:01:02.223Z,46.17
2022-08-05T03:03:33.731Z,46.13
2022-08-05T03:06:54.923Z,46.39
2022-08-05T03:09:17.748Z,46.42
2022-08-05T03:11:55.787Z,46.79
2022-08-05T03:14:26.254Z,46.77
2022-08-05T03:16:54.172Z,46.54
2022-08-05T03:19:34.454Z,46.35
2022-08-05T03:22:05.046Z,46.21
2022-08-05T03:24:44.637Z,46.15
2022-08-05T03:27:15.913Z,46.45
2022-08-05T03:29:45.459Z,46.35
2022-08-05T03:32:32.018Z,46.27
2022-08-05T03:35:04.457Z,46.46
2022-08-05T03:37:46.281Z,46.90
2022-08-05T03:40:15.548Z,46.77
2022-08-05T03:42:52.975Z,46.99
2022-08-05T03:45:23.288Z,46.95
2022-08-05T03:47:51.788Z,47.34
2022-08-05T03:50:30.196Z,47.39
2022-08-05T03:55:06.866Z,47.35
2022-08-05T03:56:12.094Z,47.31
2022-08-05T03:58:47.921Z,47.23
2022-08-05T04:01:22.242Z,47.38
2022-08-05T04:04:09.060Z,47.35
2022-08-05T04:06:47.535Z,47.18
2022-08-05T04:09:20.251Z,47.26
2022-08-05T04:11:52.618Z,47.59
2022-08-05T04:14:30.147Z,47.53
2022-08-05T04:16:59.881Z,47.99
2022-08-05T04:19:29.208Z,47.29
2022-08-05T04:22:08.133Z,47.99
2022-08-05T04:24:39.007Z,48.13
2022-08-05T04:27:12.831Z,48.26
2022-08-05T04:29:40.925Z,48.30
2022-08-05T04:32:09.690Z,48.56
2022-08-05T04:34:43.110Z,48.75
2022-08-05T04:37:15.222Z,49.57
2022-08-05T04:39:44.598Z,49.36
2022-08-05T04:42:20.472Z,49.60
2022-08-05T04:44:53.388Z,49.98
2022-08-05T04:47:21.076Z,49.74
2022-08-05T04:50:01.461Z,49.20
2022-08-05T04:52:35.004Z,49.18
2022-08-05T04:55:03.737Z,49.10
2022-08-05T04:57:47.782Z,49.01
2022-08-05T05:00:16.726Z,48.75
2022-08-05T05:02:44.605Z,47.95
2022-08-05T05:05:16.939Z,48.14
2022-08-05T05:08:01.368Z,47.72
2022-08-05T05:10:30.317Z,47.73
2022-08-05T05:12:58.462Z,47.88
2022-08-05T05:15:57.512Z,47.45
2022-08-05T05:18:31.638Z,47.33
2022-08-05T05:21:02.163Z,47.47
2022-08-05T05:24:01.902Z,47.06
2022-08-05T05:26:28.407Z,47.39
2022-08-05T05:29:00.693Z,47.32
2022-08-05T05:31:35.958Z,46.72
2022-08-05T05:34:01.956Z,47.18
2022-08-05T05:36:31.088Z,46.62
2022-08-05T05:39:00.783Z,47.22
2022-08-05T05:41:40.825Z,46.81
2022-08-05T05:44:36.831Z,47.10
2022-08-05T05:46:58.246Z,46.96
2022-08-05T05:49:26.088Z,46.81
2022-08-05T05:51:53.826Z,46.33
2022-08-05T05:54:49.796Z,46.85
2022-08-05T05:57:13.843Z,46.95
2022-08-05T05:59:47.102Z,46.41
2022-08-05T06:02:16.611Z,46.65
2022-08-05T06:04:49.148Z,46.55
2022-08-05T06:07:17.255Z,46.46
2022-08-05T06:10:03.401Z,46.62
2022-08-05T06:12:32.481Z,46.64
2022-08-05T06:15:02.085Z,46.89
2022-08-05T06:17:52.720Z,46.96
2022-08-05T06:20:21.299Z,46.89
2022-08-05T06:22:49.250Z,46.75
2022-08-05T06:25:25.084Z,46.44
2022-08-05T06:28:12.854Z,47.08
2022-08-05T06:30:49.227Z,46.62
2022-08-05T06:33:19.241Z,47.45
2022-08-05T06:36:07.720Z,47.48
2022-08-05T06:38:36.297Z,47.16
2022-08-05T06:41:07.844Z,47.34
2022-08-05T06:43:59.048Z,46.44
2022-08-05T06:46:30.348Z,46.72
2022-08-05T06:48:59.323Z,46.38
2022-08-05T06:51:29.315Z,46.15
2022-08-05T06:53:58.346Z,45.72
2022-08-05T06:56:27.640Z,46.23
2022-08-05T06:58:55.419Z,46.10
2022-08-05T07:01:23.715Z,45.81
2022-08-05T07:03:59.893Z,45.54
2022-08-05T07:06:27.720Z,45.95
2022-08-05T07:08:59.034Z,46.18
2022-08-05T07:11:30.926Z,45.71
2022-08-05T07:14:29.704Z,46.08
2022-08-05T07:17:58.595Z,46.15
2022-08-05T07:20:32.508Z,46.26
2022-08-05T07:22:38.361Z,46.09
2022-08-05T07:25:21.976Z,46.26
2022-08-05T07:27:57.228Z,46.42
2022-08-05T07:30:32.681Z,46.52
2022-08-05T07:33:09.030Z,46.76
2022-08-05T07:36:03.458Z,47.04
2022-08-05T07:38:33.977Z,46.53
2022-08-05T07:42:08.331Z,47.02
2022-08-05T07:43:56.637Z,46.90
2022-08-05T07:46:26.712Z,47.16
2022-08-05T07:49:01.422Z,47.71
2022-08-05T07:51:37.359Z,47.41
2022-08-05T07:54:10.591Z,47.63
2022-08-05T07:57:01.841Z,47.36
2022-08-05T07:59:38.928Z,46.86
2022-08-05T08:02:15.335Z,46.70
2022-08-05T08:04:44.987Z,46.15
2022-08-05T08:07:13.124Z,46.06
2022-08-05T08:09:40.836Z,45.72
2022-08-05T08:12:19.202Z,45.36
2022-08-05T08:15:02.300Z,45.01
2022-08-05T08:17:30.762Z,44.64
2022-08-05T08:20:21.242Z,44.36
2022-08-05T08:22:52.244Z,44.50
2022-08-05T08:25:26.922Z,44.32
2022-08-05T08:28:18.012Z,44.24
2022-08-05T08:30:49.957Z,44.18
2022-08-05T08:33:19.200Z,44.51
2022-08-05T08:35:53.870Z,44.25
2022-08-05T08:38:37.886Z,44.66
2022-08-05T08:41:08.433Z,44.78
2022-08-05T08:45:19.143Z,44.72
2022-08-05T08:46:29.009Z,44.91
2022-08-05T08:49:07.738Z,44.65
2022-08-05T08:52:03.798Z,44.77
2022-08-05T08:54:36.555Z,44.52
2022-08-05T08:57:11.246Z,44.29
2022-08-05T08:59:41.903Z,44.63
2022-08-05T09:02:19.091Z,44.83
2022-08-05T09:05:16.270Z,45.05
2022-08-05T09:07:39.889Z,44.58
2022-08-05T09:10:27.070Z,44.20
2022-08-05T09:12:55.863Z,44.03
2022-08-05T09:15:45.785Z,44.24
2022-08-05T09:18:41.283Z,43.99
2022-08-05T09:21:11.608Z,44.21
2022-08-05T09:23:48.245Z,44.11
2022-08-05T09:26:20.699Z,44.22
2022-08-05T09:28:49.885Z,44.16
2022-08-05T09:31:23.330Z,44.00
2022-08-05T09:34:09.770Z,43.30
2022-08-05T09:36:45.700Z,43.50
2022-08-05T09:39:39.519Z,43.37
2022-08-05T09:42:20.173Z,42.53
2022-08-05T09:44:56.387Z,42.93
2022-08-05T09:47:29.688Z,43.05
2022-08-05T09:50:37.530Z,43.02
2022-08-05T09:53:06.105Z,42.48
2022-08-05T09:55:57.261Z,42.70
2022-08-05T09:58:25.665Z,42.70
2022-08-05T10:00:59.422Z,41.75
2022-08-05T10:03:56.915Z,42.33
2022-08-05T10:06:20.783Z,42.52
2022-08-05T10:08:53.927Z,42.25
2022-08-05T10:11:23.638Z,42.41
2022-08-05T10:13:58.996Z,42.19
2022-08-05T10:16:32.359Z,42.59
2022-08-05T10:19:04.311Z,42.40
2022-08-05T10:21:40.012Z,42.00
2022-08-05T10:24:10.875Z,42.31
2022-08-05T10:26:51.923Z,41.92
2022-08-05T10:29:24.169Z,41.16
2022-08-05T10:32:53.221Z,40.67
2022-08-05T10:35:01.105Z,40.71
2022-08-05T10:37:40.147Z,40.68
2022-08-05T10:40:27.851Z,41.20
2022-08-05T10:43:00.677Z,46.84
2022-08-05T10:45:39.999Z,42.49
2022-08-05T10:48:39.550Z,37.96
2022-08-05T10:51:28.724Z,36.86
2022-08-05T10:54:23.371Z,38.55
2022-08-05T10:56:49.339Z,36.16
2022-08-05T11:00:03.058Z,36.27
2022-08-05T11:02:34.621Z,36.16
2022-08-05T11:05:06.611Z,35.16
2022-08-05T11:08:02.669Z,34.63
2022-08-05T11:10:27.555Z,33.86
2022-08-05T11:12:57.026Z,34.05
2022-08-05T11:15:59.455Z,32.58
2022-08-05T11:18:34.343Z,34.02
2022-08-05T11:21:06.281Z,34.70
2022-08-05T11:24:04.678Z,34.23
2022-08-05T11:26:33.896Z,35.53
2022-08-05T11:29:12.756Z,36.54
2022-08-05T11:31:57.743Z,36.17
2022-08-05T11:34:51.969Z,37.15
2022-08-05T11:38:29.279Z,37.00
2022-08-05T11:41:15.512Z,37.05
2022-08-05T11:44:06.251Z,35.71
2022-08-05T11:46:37.768Z,36.37
2022-08-05T11:49:25.366Z,36.02
2022-08-05T11:51:54.277Z,36.29
2022-08-05T11:54:32.623Z,35.93
2022-08-05T11:57:08.778Z,36.37
2022-08-05T11:59:52.984Z,36.35
2022-08-05T12:02:31.167Z,36.00
2022-08-05T12:05:01.334Z,36.95
2022-08-05T12:08:03.249Z,36.60
2022-08-05T12:10:43.336Z,36.30
2022-08-05T12:13:16.844Z,36.38
2022-08-05T12:15:49.666Z,36.77
2022-08-05T12:18:20.701Z,36.74
2022-08-05T12:20:51.897Z,36.93
2022-08-05T12:23:19.554Z,36.31
2022-08-05T12:25:51.818Z,36.58
2022-08-05T12:28:37.003Z,36.57
2022-08-05T12:31:07.241Z,36.27
2022-08-05T12:33:36.383Z,36.42
2022-08-05T12:36:09.018Z,37.07
2022-08-05T12:38:39.712Z,36.49
2022-08-05T12:41:13.223Z,36.79
2022-08-05T12:43:58.453Z,37.44
2022-08-05T12:46:31.410Z,36.26
2022-08-05T12:49:13.238Z,36.74
2022-08-05T12:52:14.006Z,37.05
2022-08-05T12:54:34.544Z,36.48
2022-08-05T12:57:03.963Z,36.64
2022-08-05T13:00:08.502Z,36.75
2022-08-05T13:02:40.112Z,36.78
2022-08-05T13:05:12.655Z,36.80
2022-08-05T13:07:59.711Z,37.49
2022-08-05T13:10:28.825Z,37.62
2022-08-05T13:12:58.701Z,36.32
2022-08-05T13:15:41.226Z,36.02
2022-08-05T13:18:11.102Z,36.41
2022-08-05T13:20:46.670Z,36.25
2022-08-05T13:23:14.340Z,37.09
2022-08-05T13:25:52.790Z,36.37
2022-08-05T13:28:26.800Z,36.43
2022-08-05T13:30:54.539Z,36.04
2022-08-05T13:34:24.354Z,35.73
2022-08-05T13:36:14.430Z,35.92
2022-08-05T13:38:43.208Z,36.75
2022-08-05T13:41:11.495Z,37.24
2022-08-05T13:43:45.446Z,36.78
2022-08-05T13:46:37.726Z,36.22
2022-08-05T13:49:11.609Z,36.76
2022-08-05T13:51:41.405Z,36.25
2022-08-05T13:54:12.698Z,36.07
2022-08-05T13:56:45.075Z,36.50
2022-08-05T13:59:21.071Z,35.55
2022-08-05T14:01:57.892Z,35.67
2022-08-05T14:04:49.844Z,35.76
2022-08-05T14:07:56.392Z,35.86
2022-08-05T14:10:09.690Z,34.76
2022-08-05T14:12:37.660Z,34.06
2022-08-05T14:16:06.928Z,34.55
2022-08-05T14:17:59.396Z,34.99
2022-08-05T14:20:29.610Z,34.78
2022-08-05T14:22:57.789Z,34.15
2022-08-05T14:25:28.219Z,34.56
2022-08-05T14:27:56.443Z,34.46
2022-08-05T14:30:28.191Z,34.36
2022-08-05T14:32:56.629Z,33.97
2022-08-05T14:35:37.147Z,33.35
2022-08-05T14:38:32.892Z,33.27
2022-08-05T14:41:05.682Z,32.19
2022-08-05T14:43:58.934Z,31.80
2022-08-05T14:46:22.029Z,31.27
2022-08-05T14:48:50.239Z,31.21
2022-08-05T14:51:18.108Z,31.38
2022-08-05T14:54:00.533Z,30.68
2022-08-05T14:56:38.153Z,30.17
2022-08-05T14:59:12.762Z,30.90
2022-08-05T15:01:47.946Z,29.91
2022-08-05T15:04:17.306Z,29.50
2022-08-05T15:06:49.414Z,29.90
2022-08-05T15:09:52.533Z,29.67
2022-08-05T15:12:08.973Z,29.32
2022-08-05T15:14:48.472Z,29.65
2022-08-05T15:17:45.808Z,29.86
2022-08-05T15:20:07.570Z,29.41
2022-08-05T15:22:37.747Z,29.06
2022-08-05T15:25:11.940Z,29.34
2022-08-05T15:27:43.072Z,29.25
2022-08-05T15:30:20.402Z,29.67
2022-08-05T15:32:50.190Z,30.24
2022-08-05T15:35:17.899Z,30.29
2022-08-05T15:38:09.200Z,30.38
2022-08-05T15:41:00.838Z,29.41
2022-08-05T15:43:26.451Z,29.98
2022-08-05T15:46:00.088Z,29.91
2022-08-05T15:48:29.727Z,29.67
2022-08-05T15:50:57.810Z,28.67
2022-08-05T15:53:38.250Z,28.08
2022-08-05T15:56:19.868Z,27.85
2022-08-05T15:58:48.192Z,28.88
2022-08-05T16:01:18.040Z,29.22
2022-08-05T16:03:48.376Z,29.41
2022-08-05T16:06:20.006Z,28.99
2022-08-05T16:08:50.337Z,30.02
2022-08-05T16:11:42.900Z,30.31
2022-08-05T16:14:10.489Z,29.55
2022-08-05T16:16:46.065Z,29.44
2022-08-05T16:19:18.990Z,30.30
2022-08-05T16:22:03.411Z,30.16
2022-08-05T16:24:40.703Z,30.55
2022-08-05T16:27:32.356Z,31.80
2022-08-05T16:30:23.238Z,32.48
2022-08-05T16:32:53.763Z,32.97
2022-08-05T16:35:27.578Z,33.89
2022-08-05T16:38:03.554Z,34.30
2022-08-05T16:40:51.798Z,34.25
2022-08-05T16:43:25.665Z,34.59
2022-08-05T16:46:07.098Z,34.66
2022-08-05T16:48:42.856Z,34.39
2022-08-05T16:51:11.170Z,34.36
2022-08-05T16:54:02.922Z,34.50
2022-08-05T16:56:29.453Z,34.63
2022-08-05T16:59:00.858Z,34.83
2022-08-05T17:01:53.235Z,34.49
2022-08-05T17:04:19.509Z,34.72
2022-08-05T17:06:53.063Z,35.17
2022-08-05T17:09:21.560Z,35.05
2022-08-05T17:11:56.097Z,34.84
2022-08-05T17:14:37.422Z,34.89
2022-08-05T17:17:09.312Z,34.90
2022-08-05T17:19:45.453Z,35.29
2022-08-05T17:22:24.632Z,35.58
2022-08-05T17:24:56.990Z,35.70
2022-08-05T17:27:27.509Z,35.10
2022-08-05T17:30:04.686Z,35.43
2022-08-05T17:32:39.983Z,35.29
2022-08-05T17:35:10.806Z,35.49
2022-08-05T17:37:45.460Z,35.39
2022-08-05T17:40:18.530Z,36.00
2022-08-05T17:42:52.158Z,35.54
2022-08-05T17:45:25.058Z,35.55
2022-08-05T17:47:57.340Z,36.29
2022-08-05T17:50:28.545Z,36.44
2022-08-05T17:53:02.445Z,36.54
2022-08-05T17:55:38.125Z,36.55
2022-08-05T17:58:13.329Z,37.87
2022-08-05T18:00:47.789Z,38.04
2022-08-05T18:03:56.356Z,38.71
2022-08-05T18:06:11.233Z,39.86
2022-08-05T18:08:45.036Z,39.60
2022-08-05T18:11:24.712Z,40.00
2022-08-05T18:14:04.336Z,40.20
2022-08-05T18:16:43.684Z,40.68
2022-08-05T18:19:22.491Z,40.57
2022-08-05T18:22:07.160Z,40.54
2022-08-05T18:24:37.811Z,40.70
2022-08-05T18:27:12.666Z,40.48
2022-08-05T18:29:51.901Z,40.45
2022-08-05T18:32:28.441Z,40.52
2022-08-05T18:34:57.394Z,40.79
2022-08-05T18:37:33.492Z,41.75
2022-08-05T18:41:50.555Z,41.45
2022-08-05T18:42:50.342Z,41.45
2022-08-05T18:45:19.992Z,41.84
2022-08-05T18:47:56.394Z,41.46
2022-08-05T18:50:46.873Z,41.80
2022-08-05T18:53:22.728Z,41.85
2022-08-05T18:55:53.160Z,41.80
2022-08-05T18:58:27.165Z,42.20
2022-08-05T19:00:57.066Z,42.75
2022-08-05T19:03:55.750Z,42.80
2022-08-05T19:06:21.895Z,42.64
2022-08-05T19:08:51.128Z,43.47
2022-08-05T19:11:27.905Z,43.84
2022-08-05T19:14:01.124Z,45.00
2022-08-05T19:16:47.091Z,46.01
2022-08-05T19:19:21.021Z,46.19
2022-08-05T19:21:51.569Z,45.79
2022-08-05T19:24:34.863Z,48.53
2022-08-05T19:27:03.962Z,51.68
2022-08-05T19:29:35.835Z,52.39
2022-08-05T19:32:08.487Z,53.45
2022-08-05T19:34:37.892Z,55.54
2022-08-05T19:37:06.985Z,56.20
2022-08-05T19:39:45.931Z,55.44
2022-08-05T19:42:19.290Z,56.55
2022-08-05T19:45:06.044Z,56.45
2022-08-05T19:47:34.660Z,56.79
2022-08-05T19:50:11.904Z,57.16
2022-08-05T19:52:40.817Z,54.91
2022-08-05T19:56:14.202Z,55.57
2022-08-05T19:58:07.134Z,57.29
2022-08-05T20:00:46.055Z,59.78
2022-08-05T20:03:14.140Z,59.06
2022-08-05T20:05:51.478Z,57.29
2022-08-05T20:08:20.111Z,59.78
2022-08-05T20:10:49.325Z,61.15
2022-08-05T20:13:18.267Z,60.75
2022-08-05T20:15:58.152Z,60.81
2022-08-05T20:18:33.927Z,58.15
2022-08-05T20:21:06.519Z,58.19
2022-08-05T20:23:39.960Z,57.93
2022-08-05T20:26:19.955Z,57.73
2022-08-05T20:28:48.600Z,57.83
2022-08-05T20:31:16.916Z,57.89
2022-08-05T20:33:45.331Z,56.17
2022-08-05T20:36:16.477Z,58.56
2022-08-05T20:38:54.401Z,59.95
2022-08-05T20:41:27.190Z,60.30
2022-08-05T20:44:17.888Z,59.43
2022-08-05T20:46:47.735Z,58.96
2022-08-05T20:49:24.037Z,57.99
2022-08-05T20:51:54.140Z,56.98
2022-08-05T20:54:22.071Z,56.87
2022-08-05T20:56:49.883Z,56.88
2022-08-05T20:59:26.182Z,56.30
2022-08-05T21:01:57.128Z,55.79
2022-08-05T21:04:26.972Z,55.57
2022-08-05T21:06:56.738Z,55.93
2022-08-05T21:09:25.869Z,55.77
2022-08-05T21:12:09.901Z,56.92
2022-08-05T21:14:39.809Z,56.51
2022-08-05T21:17:07.508Z,55.76
2022-08-05T21:19:46.711Z,55.36
2022-08-05T21:22:18.701Z,55.07
2022-08-05T21:24:51.409Z,54.94
2022-08-05T21:27:20.622Z,54.98
2022-08-05T21:29:54.182Z,54.78
2022-08-05T21:32:24.537Z,55.43
2022-08-05T21:35:06.759Z,55.61
2022-08-05T21:37:41.171Z,54.94
2022-08-05T21:40:13.695Z,55.02
2022-08-05T21:42:44.647Z,56.10
2022-08-05T21:45:17.611Z,60.89
2022-08-05T21:48:06.589Z,63.19
2022-08-05T21:50:37.314Z,65.99
2022-08-05T21:53:08.455Z,63.94
2022-08-05T21:56:05.055Z,61.11
2022-08-05T21:58:32.701Z,60.49
2022-08-05T22:01:00.758Z,58.35
2022-08-05T22:03:48.596Z,58.96
2022-08-05T22:06:22.557Z,57.52
2022-08-05T22:08:52.691Z,58.44
2022-08-05T22:11:34.422Z,58.23
2022-08-05T22:14:05.986Z,59.63
2022-08-05T22:16:52.568Z,61.38
2022-08-05T22:20:01.088Z,59.63
2022-08-05T22:22:12.429Z,62.02
2022-08-05T22:25:01.738Z,61.39
2022-08-05T22:28:10.722Z,61.37
2022-08-05T22:30:35.871Z,62.61
2022-08-05T22:33:15.452Z,65.72
2022-08-05T22:35:48.641Z,67.64
2022-08-05T22:38:18.902Z,68.76
2022-08-05T22:40:49.351Z,70.31
2022-08-05T22:43:37.432Z,70.38
2022-08-05T22:46:13.192Z,70.32
2022-08-05T22:48:42.164Z,70.19
2022-08-05T22:51:15.895Z,69.86
2022-08-05T22:53:50.347Z,69.13
2022-08-05T22:56:29.745Z,68.37
2022-08-05T22:59:00.058Z,66.70
2022-08-05T23:02:04.455Z,66.16
2022-08-05T23:04:19.447Z,66.51
2022-08-05T23:06:47.733Z,65.69
2022-08-05T23:09:27.795Z,66.00
2022-08-05T23:12:05.765Z,66.77
2022-08-05T23:14:33.802Z,66.67
2022-08-05T23:17:24.141Z,66.62
2022-08-05T23:19:56.077Z,66.38
2022-08-05T23:22:27.214Z,66.58
2022-08-05T23:24:56.002Z,66.10
2022-08-05T23:27:31.194Z,66.77
2022-08-05T23:30:00.860Z,66.63
2022-08-05T23:32:28.890Z,66.25
2022-08-05T23:34:56.914Z,66.52
2022-08-05T23:37:26.601Z,66.97
2022-08-05T23:40:02.043Z,67.66
2022-08-05T23:42:37.860Z,67.39
2022-08-05T23:45:13.921Z,67.28
2022-08-05T23:47:47.709Z,68.05
2022-08-05T23:50:17.089Z,68.34
2022-08-05T23:52:50.135Z,68.35
2022-08-05T23:55:19.688Z,68.47
2022-08-05T23:57:51.212Z,69.26
